sensor_id;sensor_type;location;lat;lon;timestamp;P1;durP1;ratioP1;P2;durP2;ratioP2
22967;SDS011;11650;48.106;-1.696;2023-05-07T00:02:06;16.93;;;5.50;;
22967;SDS011;11650;48.106;-1.696;2023-05-07T00:04:32;15.60;;;5.00;;
22967;SDS011;11650;48.106;-1.696;2023-05-07T00:07:01;15.80;;;4.77;;
22967;SDS011;11650;48.106;-1.696;2023-05-07T00:09:27;15.30;;;4.67;;
22967;SDS011;11650;48.106;-1.696;2023-05-07T00:11:53;16.90;;;4.73;;
22967;SDS011;11650;48.106;-1.696;2023-05-07T00:14:19;16.07;;;4.87;;
22967;SDS011;11650;48.106;-1.696;2023-05-07T00:16:45;13.70;;;4.57;;
22967;SDS011;11650;48.106;-1.696;2023-05-07T00:19:11;15.40;;;4.80;;
22967;SDS011;11650;48.106;-1.696;2023-05-07T00:21:37;16.47;;;5.03;;
22967;SDS011;11650;48.106;-1.696;2023-05-07T00:24:03;12.97;;;4.30;;
22967;SDS011;11650;48.106;-1.696;2023-05-07T00:26:29;17.00;;;5.07;;
22967;SDS011;11650;48.106;-1.696;2023-05-07T00:28:55;16.50;;;4.80;;
22967;SDS011;11650;48.106;-1.696;2023-05-07T00:31:20;19.57;;;4.63;;
22967;SDS011;11650;48.106;-1.696;2023-05-07T00:33:46;16.23;;;4.50;;
22967;SDS011;11650;48.106;-1.696;2023-05-07T00:36:11;11.73;;;4.50;;
22967;SDS011;11650;48.106;-1.696;2023-05-07T00:38:37;15.67;;;4.67;;
22967;SDS011;11650;48.106;-1.696;2023-05-07T00:41:03;15.23;;;5.00;;
22967;SDS011;11650;48.106;-1.696;2023-05-07T00:43:28;14.80;;;4.90;;
22967;SDS011;11650;48.106;-1.696;2023-05-07T00:45:54;14.40;;;4.33;;
22967;SDS011;11650;48.106;-1.696;2023-05-07T00:48:20;15.77;;;4.97;;
22967;SDS011;11650;48.106;-1.696;2023-05-07T00:50:46;15.07;;;4.73;;
22967;SDS011;11650;48.106;-1.696;2023-05-07T00:53:13;20.50;;;5.20;;
22967;SDS011;11650;48.106;-1.696;2023-05-07T00:55:39;18.57;;;4.73;;
22967;SDS011;11650;48.106;-1.696;2023-05-07T00:58:05;14.73;;;4.37;;
22967;SDS011;11650;48.106;-1.696;2023-05-07T01:00:31;18.70;;;5.20;;
22967;SDS011;11650;48.106;-1.696;2023-05-07T01:02:57;16.77;;;4.73;;
22967;SDS011;11650;48.106;-1.696;2023-05-07T01:05:23;12.50;;;4.60;;
22967;SDS011;11650;48.106;-1.696;2023-05-07T01:07:50;18.53;;;5.57;;
22967;SDS011;11650;48.106;-1.696;2023-05-07T01:10:17;16.60;;;5.17;;
22967;SDS011;11650;48.106;-1.696;2023-05-07T01:12:43;16.37;;;5.60;;
22967;SDS011;11650;48.106;-1.696;2023-05-07T01:15:10;20.57;;;6.23;;
22967;SDS011;11650;48.106;-1.696;2023-05-07T01:17:37;17.47;;;5.50;;
22967;SDS011;11650;48.106;-1.696;2023-05-07T01:20:05;13.43;;;5.47;;
22967;SDS011;11650;48.106;-1.696;2023-05-07T01:22:32;16.67;;;5.27;;
22967;SDS011;11650;48.106;-1.696;2023-05-07T01:25:01;23.40;;;5.77;;
22967;SDS011;11650;48.106;-1.696;2023-05-07T01:27:28;19.10;;;5.30;;
22967;SDS011;11650;48.106;-1.696;2023-05-07T01:29:55;18.57;;;5.67;;
22967;SDS011;11650;48.106;-1.696;2023-05-07T01:32:23;23.00;;;5.93;;
22967;SDS011;11650;48.106;-1.696;2023-05-07T01:35:05;16.57;;;5.63;;
22967;SDS011;11650;48.106;-1.696;2023-05-07T01:37:33;18.00;;;5.83;;
22967;SDS011;11650;48.106;-1.696;2023-05-07T01:39:59;21.07;;;5.90;;
22967;SDS011;11650;48.106;-1.696;2023-05-07T01:42:26;22.67;;;6.20;;
22967;SDS011;11650;48.106;-1.696;2023-05-07T01:44:53;19.30;;;6.00;;
22967;SDS011;11650;48.106;-1.696;2023-05-07T01:47:19;18.40;;;6.37;;
22967;SDS011;11650;48.106;-1.696;2023-05-07T01:49:46;20.63;;;5.63;;
22967;SDS011;11650;48.106;-1.696;2023-05-07T01:52:12;18.07;;;5.80;;
22967;SDS011;11650;48.106;-1.696;2023-05-07T01:54:38;18.43;;;5.93;;
22967;SDS011;11650;48.106;-1.696;2023-05-07T01:57:04;17.20;;;5.90;;
22967;SDS011;11650;48.106;-1.696;2023-05-07T01:59:29;17.07;;;5.97;;
22967;SDS011;11650;48.106;-1.696;2023-05-07T02:01:55;20.47;;;6.13;;
22967;SDS011;11650;48.106;-1.696;2023-05-07T02:04:21;17.47;;;5.47;;
22967;SDS011;11650;48.106;-1.696;2023-05-07T02:06:46;19.57;;;5.73;;
22967;SDS011;11650;48.106;-1.696;2023-05-07T02:09:13;20.97;;;5.40;;
22967;SDS011;11650;48.106;-1.696;2023-05-07T02:11:39;19.67;;;6.30;;
22967;SDS011;11650;48.106;-1.696;2023-05-07T02:14:05;19.47;;;6.70;;
22967;SDS011;11650;48.106;-1.696;2023-05-07T02:16:31;18.27;;;6.57;;
22967;SDS011;11650;48.106;-1.696;2023-05-07T02:18:56;16.90;;;5.87;;
22967;SDS011;11650;48.106;-1.696;2023-05-07T02:21:23;19.30;;;6.03;;
22967;SDS011;11650;48.106;-1.696;2023-05-07T02:23:50;24.53;;;6.40;;
22967;SDS011;11650;48.106;-1.696;2023-05-07T02:26:15;18.73;;;5.67;;
22967;SDS011;11650;48.106;-1.696;2023-05-07T02:28:41;20.67;;;6.47;;
22967;SDS011;11650;48.106;-1.696;2023-05-07T02:31:06;21.13;;;5.77;;
22967;SDS011;11650;48.106;-1.696;2023-05-07T02:33:32;24.60;;;7.00;;
22967;SDS011;11650;48.106;-1.696;2023-05-07T02:36:09;18.80;;;6.60;;
22967;SDS011;11650;48.106;-1.696;2023-05-07T02:38:35;22.00;;;6.47;;
22967;SDS011;11650;48.106;-1.696;2023-05-07T02:41:01;20.60;;;6.27;;
22967;SDS011;11650;48.106;-1.696;2023-05-07T02:43:27;18.00;;;6.20;;
22967;SDS011;11650;48.106;-1.696;2023-05-07T02:48:32;26.73;;;7.23;;
22967;SDS011;11650;48.106;-1.696;2023-05-07T02:50:58;16.60;;;5.93;;
22967;SDS011;11650;48.106;-1.696;2023-05-07T02:53:25;22.53;;;6.30;;
22967;SDS011;11650;48.106;-1.696;2023-05-07T02:55:55;26.07;;;7.07;;
22967;SDS011;11650;48.106;-1.696;2023-05-07T02:58:21;25.93;;;6.83;;
22967;SDS011;11650;48.106;-1.696;2023-05-07T03:00:47;18.90;;;6.10;;
22967;SDS011;11650;48.106;-1.696;2023-05-07T03:03:13;21.73;;;6.03;;
22967;SDS011;11650;48.106;-1.696;2023-05-07T03:05:39;22.57;;;5.77;;
22967;SDS011;11650;48.106;-1.696;2023-05-07T03:08:05;21.87;;;6.60;;
22967;SDS011;11650;48.106;-1.696;2023-05-07T03:10:31;24.33;;;7.03;;
22967;SDS011;11650;48.106;-1.696;2023-05-07T03:12:57;21.20;;;7.00;;
22967;SDS011;11650;48.106;-1.696;2023-05-07T03:15:22;19.60;;;6.33;;
22967;SDS011;11650;48.106;-1.696;2023-05-07T03:17:48;20.03;;;6.53;;
22967;SDS011;11650;48.106;-1.696;2023-05-07T03:20:13;26.03;;;6.83;;
22967;SDS011;11650;48.106;-1.696;2023-05-07T03:22:39;18.83;;;6.37;;
22967;SDS011;11650;48.106;-1.696;2023-05-07T03:25:06;26.33;;;7.33;;
22967;SDS011;11650;48.106;-1.696;2023-05-07T03:27:32;24.77;;;6.93;;
22967;SDS011;11650;48.106;-1.696;2023-05-07T03:29:58;22.10;;;6.63;;
22967;SDS011;11650;48.106;-1.696;2023-05-07T03:32:23;21.40;;;6.40;;
22967;SDS011;11650;48.106;-1.696;2023-05-07T03:34:49;22.77;;;7.17;;
22967;SDS011;11650;48.106;-1.696;2023-05-07T03:37:15;21.53;;;6.70;;
22967;SDS011;11650;48.106;-1.696;2023-05-07T03:39:40;24.60;;;6.67;;
22967;SDS011;11650;48.106;-1.696;2023-05-07T03:42:06;20.37;;;6.80;;
22967;SDS011;11650;48.106;-1.696;2023-05-07T03:44:32;24.90;;;6.90;;
22967;SDS011;11650;48.106;-1.696;2023-05-07T03:46:57;18.73;;;7.00;;
22967;SDS011;11650;48.106;-1.696;2023-05-07T03:49:23;19.70;;;6.60;;
22967;SDS011;11650;48.106;-1.696;2023-05-07T03:51:49;28.00;;;6.90;;
22967;SDS011;11650;48.106;-1.696;2023-05-07T03:54:14;22.03;;;6.77;;
22967;SDS011;11650;48.106;-1.696;2023-05-07T03:56:40;20.23;;;6.20;;
22967;SDS011;11650;48.106;-1.696;2023-05-07T03:59:06;23.20;;;7.00;;
22967;SDS011;11650;48.106;-1.696;2023-05-07T04:01:31;21.30;;;6.40;;
22967;SDS011;11650;48.106;-1.696;2023-05-07T04:03:57;16.57;;;6.67;;
22967;SDS011;11650;48.106;-1.696;2023-05-07T04:06:22;23.10;;;6.53;;
22967;SDS011;11650;48.106;-1.696;2023-05-07T04:08:49;22.90;;;6.60;;
22967;SDS011;11650;48.106;-1.696;2023-05-07T04:11:14;19.23;;;6.07;;
22967;SDS011;11650;48.106;-1.696;2023-05-07T04:13:40;18.20;;;6.50;;
22967;SDS011;11650;48.106;-1.696;2023-05-07T04:16:06;19.53;;;6.23;;
22967;SDS011;11650;48.106;-1.696;2023-05-07T04:18:31;17.00;;;6.00;;
22967;SDS011;11650;48.106;-1.696;2023-05-07T04:20:57;18.37;;;6.60;;
22967;SDS011;11650;48.106;-1.696;2023-05-07T04:23:23;17.43;;;6.13;;
22967;SDS011;11650;48.106;-1.696;2023-05-07T04:25:48;17.17;;;6.17;;
22967;SDS011;11650;48.106;-1.696;2023-05-07T04:28:14;17.63;;;6.30;;
22967;SDS011;11650;48.106;-1.696;2023-05-07T04:30:40;17.17;;;6.87;;
22967;SDS011;11650;48.106;-1.696;2023-05-07T04:33:06;17.57;;;6.27;;
22967;SDS011;11650;48.106;-1.696;2023-05-07T04:35:32;19.23;;;6.63;;
22967;SDS011;11650;48.106;-1.696;2023-05-07T04:37:58;15.80;;;5.83;;
22967;SDS011;11650;48.106;-1.696;2023-05-07T04:40:23;15.80;;;6.17;;
22967;SDS011;11650;48.106;-1.696;2023-05-07T04:42:49;15.90;;;6.03;;
22967;SDS011;11650;48.106;-1.696;2023-05-07T04:45:16;13.30;;;6.23;;
22967;SDS011;11650;48.106;-1.696;2023-05-07T04:47:42;14.90;;;5.87;;
22967;SDS011;11650;48.106;-1.696;2023-05-07T04:50:07;15.27;;;6.00;;
22967;SDS011;11650;48.106;-1.696;2023-05-07T04:52:33;14.73;;;6.23;;
22967;SDS011;11650;48.106;-1.696;2023-05-07T04:54:59;14.10;;;5.83;;
22967;SDS011;11650;48.106;-1.696;2023-05-07T04:57:25;17.07;;;6.67;;
22967;SDS011;11650;48.106;-1.696;2023-05-07T04:59:52;11.77;;;5.90;;
22967;SDS011;11650;48.106;-1.696;2023-05-07T05:02:18;12.60;;;4.90;;
22967;SDS011;11650;48.106;-1.696;2023-05-07T05:04:44;13.47;;;5.17;;
22967;SDS011;11650;48.106;-1.696;2023-05-07T05:07:10;14.87;;;5.87;;
22967;SDS011;11650;48.106;-1.696;2023-05-07T05:09:36;10.77;;;4.63;;
22967;SDS011;11650;48.106;-1.696;2023-05-07T05:12:01;11.03;;;5.10;;
22967;SDS011;11650;48.106;-1.696;2023-05-07T05:14:27;13.13;;;5.40;;
22967;SDS011;11650;48.106;-1.696;2023-05-07T05:16:53;10.20;;;5.47;;
22967;SDS011;11650;48.106;-1.696;2023-05-07T05:19:18;13.33;;;5.60;;
22967;SDS011;11650;48.106;-1.696;2023-05-07T05:21:44;12.43;;;5.73;;
22967;SDS011;11650;48.106;-1.696;2023-05-07T05:24:09;17.03;;;5.90;;
22967;SDS011;11650;48.106;-1.696;2023-05-07T05:26:35;13.17;;;5.80;;
22967;SDS011;11650;48.106;-1.696;2023-05-07T05:29:01;13.93;;;6.13;;
22967;SDS011;11650;48.106;-1.696;2023-05-07T05:31:26;14.63;;;5.80;;
22967;SDS011;11650;48.106;-1.696;2023-05-07T05:33:52;10.87;;;5.73;;
22967;SDS011;11650;48.106;-1.696;2023-05-07T05:36:18;10.47;;;5.37;;
22967;SDS011;11650;48.106;-1.696;2023-05-07T05:38:43;13.13;;;5.43;;
22967;SDS011;11650;48.106;-1.696;2023-05-07T05:41:09;12.23;;;6.40;;
22967;SDS011;11650;48.106;-1.696;2023-05-07T05:43:35;12.93;;;5.67;;
22967;SDS011;11650;48.106;-1.696;2023-05-07T05:46:01;12.57;;;6.37;;
22967;SDS011;11650;48.106;-1.696;2023-05-07T05:48:28;14.77;;;5.93;;
22967;SDS011;11650;48.106;-1.696;2023-05-07T05:50:54;12.70;;;5.80;;
22967;SDS011;11650;48.106;-1.696;2023-05-07T05:53:20;12.33;;;5.77;;
22967;SDS011;11650;48.106;-1.696;2023-05-07T05:55:45;16.73;;;5.97;;
22967;SDS011;11650;48.106;-1.696;2023-05-07T05:58:11;8.77;;;5.43;;
22967;SDS011;11650;48.106;-1.696;2023-05-07T06:00:37;12.60;;;5.53;;
22967;SDS011;11650;48.106;-1.696;2023-05-07T06:03:02;12.57;;;6.43;;
22967;SDS011;11650;48.106;-1.696;2023-05-07T06:05:28;12.97;;;6.00;;
22967;SDS011;11650;48.106;-1.696;2023-05-07T06:07:54;10.87;;;5.80;;
22967;SDS011;11650;48.106;-1.696;2023-05-07T06:10:19;13.47;;;6.13;;
22967;SDS011;11650;48.106;-1.696;2023-05-07T06:12:45;13.27;;;5.93;;
22967;SDS011;11650;48.106;-1.696;2023-05-07T06:15:11;10.13;;;5.93;;
22967;SDS011;11650;48.106;-1.696;2023-05-07T06:17:36;10.57;;;5.27;;
22967;SDS011;11650;48.106;-1.696;2023-05-07T06:20:02;7.87;;;5.00;;
22967;SDS011;11650;48.106;-1.696;2023-05-07T06:22:28;10.40;;;5.20;;
22967;SDS011;11650;48.106;-1.696;2023-05-07T06:24:54;13.27;;;5.63;;
22967;SDS011;11650;48.106;-1.696;2023-05-07T06:27:19;10.23;;;5.73;;
22967;SDS011;11650;48.106;-1.696;2023-05-07T06:29:45;9.63;;;5.97;;
22967;SDS011;11650;48.106;-1.696;2023-05-07T06:32:13;10.50;;;5.93;;
22967;SDS011;11650;48.106;-1.696;2023-05-07T06:34:39;11.67;;;5.47;;
22967;SDS011;11650;48.106;-1.696;2023-05-07T06:37:05;10.57;;;5.83;;
22967;SDS011;11650;48.106;-1.696;2023-05-07T06:39:32;11.73;;;6.30;;
22967;SDS011;11650;48.106;-1.696;2023-05-07T06:41:58;12.47;;;6.17;;
22967;SDS011;11650;48.106;-1.696;2023-05-07T06:44:24;11.30;;;5.90;;
22967;SDS011;11650;48.106;-1.696;2023-05-07T06:46:50;11.33;;;6.17;;
22967;SDS011;11650;48.106;-1.696;2023-05-07T06:49:16;8.17;;;5.70;;
22967;SDS011;11650;48.106;-1.696;2023-05-07T06:51:42;11.40;;;6.00;;
22967;SDS011;11650;48.106;-1.696;2023-05-07T06:54:07;9.23;;;6.17;;
22967;SDS011;11650;48.106;-1.696;2023-05-07T06:56:33;12.03;;;6.00;;
22967;SDS011;11650;48.106;-1.696;2023-05-07T06:58:59;10.57;;;5.97;;
22967;SDS011;11650;48.106;-1.696;2023-05-07T07:01:26;9.97;;;6.03;;
22967;SDS011;11650;48.106;-1.696;2023-05-07T07:03:52;11.07;;;5.83;;
22967;SDS011;11650;48.106;-1.696;2023-05-07T07:06:18;9.60;;;5.57;;
22967;SDS011;11650;48.106;-1.696;2023-05-07T07:08:43;6.67;;;4.43;;
22967;SDS011;11650;48.106;-1.696;2023-05-07T07:11:09;6.27;;;4.67;;
22967;SDS011;11650;48.106;-1.696;2023-05-07T07:13:35;9.17;;;5.07;;
22967;SDS011;11650;48.106;-1.696;2023-05-07T07:16:01;8.27;;;5.53;;
22967;SDS011;11650;48.106;-1.696;2023-05-07T07:18:27;10.67;;;6.10;;
22967;SDS011;11650;48.106;-1.696;2023-05-07T07:20:53;11.07;;;6.07;;
22967;SDS011;11650;48.106;-1.696;2023-05-07T07:23:19;9.97;;;6.10;;
22967;SDS011;11650;48.106;-1.696;2023-05-07T07:25:45;8.97;;;6.40;;
22967;SDS011;11650;48.106;-1.696;2023-05-07T07:28:10;11.33;;;7.30;;
22967;SDS011;11650;48.106;-1.696;2023-05-07T07:30:37;13.07;;;8.30;;
22967;SDS011;11650;48.106;-1.696;2023-05-07T07:33:03;11.80;;;7.60;;
22967;SDS011;11650;48.106;-1.696;2023-05-07T07:35:29;11.27;;;8.00;;
22967;SDS011;11650;48.106;-1.696;2023-05-07T07:37:55;14.17;;;8.43;;
22967;SDS011;11650;48.106;-1.696;2023-05-07T07:40:21;15.73;;;8.50;;
22967;SDS011;11650;48.106;-1.696;2023-05-07T07:42:47;17.00;;;8.83;;
22967;SDS011;11650;48.106;-1.696;2023-05-07T07:45:12;15.73;;;8.90;;
22967;SDS011;11650;48.106;-1.696;2023-05-07T07:47:39;15.53;;;9.50;;
22967;SDS011;11650;48.106;-1.696;2023-05-07T07:50:05;14.57;;;9.60;;
22967;SDS011;11650;48.106;-1.696;2023-05-07T07:52:32;15.17;;;9.23;;
22967;SDS011;11650;48.106;-1.696;2023-05-07T07:54:57;17.83;;;9.43;;
22967;SDS011;11650;48.106;-1.696;2023-05-07T07:57:23;16.30;;;9.90;;
22967;SDS011;11650;48.106;-1.696;2023-05-07T07:59:49;16.13;;;9.07;;
22967;SDS011;11650;48.106;-1.696;2023-05-07T08:02:15;14.57;;;9.03;;
22967;SDS011;11650;48.106;-1.696;2023-05-07T08:04:41;14.20;;;8.27;;
22967;SDS011;11650;48.106;-1.696;2023-05-07T08:07:10;12.47;;;7.80;;
22967;SDS011;11650;48.106;-1.696;2023-05-07T08:09:39;14.10;;;8.60;;
22967;SDS011;11650;48.106;-1.696;2023-05-07T08:12:06;13.83;;;7.90;;
22967;SDS011;11650;48.106;-1.696;2023-05-07T08:14:32;19.23;;;12.63;;
22967;SDS011;11650;48.106;-1.696;2023-05-07T08:16:58;14.03;;;7.50;;
22967;SDS011;11650;48.106;-1.696;2023-05-07T08:19:24;13.03;;;7.97;;
22967;SDS011;11650;48.106;-1.696;2023-05-07T08:21:49;11.83;;;7.10;;
22967;SDS011;11650;48.106;-1.696;2023-05-07T08:24:15;9.27;;;6.57;;
22967;SDS011;11650;48.106;-1.696;2023-05-07T08:26:41;11.10;;;6.83;;
22967;SDS011;11650;48.106;-1.696;2023-05-07T08:29:08;9.47;;;6.03;;
22967;SDS011;11650;48.106;-1.696;2023-05-07T08:31:36;9.20;;;5.83;;
22967;SDS011;11650;48.106;-1.696;2023-05-07T08:34:04;9.13;;;6.00;;
22967;SDS011;11650;48.106;-1.696;2023-05-07T08:36:30;11.20;;;6.83;;
22967;SDS011;11650;48.106;-1.696;2023-05-07T08:38:56;9.73;;;6.57;;
22967;SDS011;11650;48.106;-1.696;2023-05-07T08:41:21;9.17;;;6.70;;
22967;SDS011;11650;48.106;-1.696;2023-05-07T08:43:48;8.80;;;6.20;;
22967;SDS011;11650;48.106;-1.696;2023-05-07T08:46:19;9.73;;;6.37;;
22967;SDS011;11650;48.106;-1.696;2023-05-07T08:48:49;7.23;;;6.00;;
22967;SDS011;11650;48.106;-1.696;2023-05-07T08:51:16;7.93;;;5.97;;
22967;SDS011;11650;48.106;-1.696;2023-05-07T08:53:43;7.23;;;5.53;;
22967;SDS011;11650;48.106;-1.696;2023-05-07T08:56:09;8.57;;;5.70;;
22967;SDS011;11650;48.106;-1.696;2023-05-07T08:58:35;7.37;;;5.50;;
22967;SDS011;11650;48.106;-1.696;2023-05-07T09:01:02;7.53;;;5.40;;
22967;SDS011;11650;48.106;-1.696;2023-05-07T09:03:31;7.30;;;5.17;;
22967;SDS011;11650;48.106;-1.696;2023-05-07T09:05:57;6.80;;;5.00;;
22967;SDS011;11650;48.106;-1.696;2023-05-07T09:08:26;6.20;;;5.18;;
22967;SDS011;11650;48.106;-1.696;2023-05-07T09:10:52;6.90;;;5.47;;
22967;SDS011;11650;48.106;-1.696;2023-05-07T09:13:18;8.53;;;5.27;;
22967;SDS011;11650;48.106;-1.696;2023-05-07T09:15:44;6.40;;;5.17;;
22967;SDS011;11650;48.106;-1.696;2023-05-07T09:18:10;6.53;;;4.93;;
22967;SDS011;11650;48.106;-1.696;2023-05-07T09:20:37;6.60;;;4.90;;
22967;SDS011;11650;48.106;-1.696;2023-05-07T09:23:03;6.37;;;5.10;;
22967;SDS011;11650;48.106;-1.696;2023-05-07T09:25:29;7.00;;;4.60;;
22967;SDS011;11650;48.106;-1.696;2023-05-07T09:27:57;5.60;;;4.20;;
22967;SDS011;11650;48.106;-1.696;2023-05-07T09:30:23;6.53;;;4.33;;
22967;SDS011;11650;48.106;-1.696;2023-05-07T09:32:53;5.30;;;3.37;;
22967;SDS011;11650;48.106;-1.696;2023-05-07T09:35:19;7.27;;;3.93;;
22967;SDS011;11650;48.106;-1.696;2023-05-07T09:37:46;4.50;;;3.43;;
22967;SDS011;11650;48.106;-1.696;2023-05-07T09:40:25;5.50;;;3.17;;
22967;SDS011;11650;48.106;-1.696;2023-05-07T09:42:53;5.40;;;4.13;;
22967;SDS011;11650;48.106;-1.696;2023-05-07T09:45:22;6.80;;;3.83;;
22967;SDS011;11650;48.106;-1.696;2023-05-07T09:47:53;5.50;;;3.70;;
22967;SDS011;11650;48.106;-1.696;2023-05-07T09:50:22;7.20;;;3.73;;
22967;SDS011;11650;48.106;-1.696;2023-05-07T09:52:56;6.07;;;4.10;;
22967;SDS011;11650;48.106;-1.696;2023-05-07T09:55:22;5.10;;;4.07;;
22967;SDS011;11650;48.106;-1.696;2023-05-07T09:57:51;5.60;;;3.70;;
22967;SDS011;11650;48.106;-1.696;2023-05-07T10:00:19;5.17;;;3.43;;
22967;SDS011;11650;48.106;-1.696;2023-05-07T10:02:46;4.10;;;3.10;;
22967;SDS011;11650;48.106;-1.696;2023-05-07T10:05:14;3.97;;;3.17;;
22967;SDS011;11650;48.106;-1.696;2023-05-07T10:07:40;4.40;;;3.10;;
22967;SDS011;11650;48.106;-1.696;2023-05-07T10:10:06;3.97;;;3.13;;
22967;SDS011;11650;48.106;-1.696;2023-05-07T10:12:32;5.50;;;3.70;;
22967;SDS011;11650;48.106;-1.696;2023-05-07T10:15:07;4.30;;;3.30;;
22967;SDS011;11650;48.106;-1.696;2023-05-07T10:17:37;4.57;;;3.20;;
22967;SDS011;11650;48.106;-1.696;2023-05-07T10:20:04;4.93;;;3.50;;
22967;SDS011;11650;48.106;-1.696;2023-05-07T10:22:44;5.80;;;3.73;;
22967;SDS011;11650;48.106;-1.696;2023-05-07T10:27:48;5.83;;;3.40;;
22967;SDS011;11650;48.106;-1.696;2023-05-07T10:32:53;4.10;;;3.10;;
22967;SDS011;11650;48.106;-1.696;2023-05-07T10:35:22;4.63;;;3.10;;
22967;SDS011;11650;48.106;-1.696;2023-05-07T10:37:51;3.53;;;2.50;;
22967;SDS011;11650;48.106;-1.696;2023-05-07T10:40:17;4.03;;;2.70;;
22967;SDS011;11650;48.106;-1.696;2023-05-07T10:45:25;4.23;;;3.10;;
22967;SDS011;11650;48.106;-1.696;2023-05-07T10:50:39;4.43;;;3.00;;
22967;SDS011;11650;48.106;-1.696;2023-05-07T10:58:45;5.57;;;3.50;;
22967;SDS011;11650;48.106;-1.696;2023-05-07T11:01:03;5.07;;;3.77;;
22967;SDS011;11650;48.106;-1.696;2023-05-07T11:03:29;5.00;;;3.83;;
22967;SDS011;11650;48.106;-1.696;2023-05-07T11:06:11;7.77;;;4.30;;
22967;SDS011;11650;48.106;-1.696;2023-05-07T11:09:11;7.30;;;4.10;;
22967;SDS011;11650;48.106;-1.696;2023-05-07T11:17:06;8.57;;;4.60;;
22967;SDS011;11650;48.106;-1.696;2023-05-07T11:19:47;6.97;;;5.03;;
22967;SDS011;11650;48.106;-1.696;2023-05-07T11:25:04;8.77;;;4.90;;
22967;SDS011;11650;48.106;-1.696;2023-05-07T11:27:31;6.60;;;4.37;;
22967;SDS011;11650;48.106;-1.696;2023-05-07T11:29:57;9.67;;;4.40;;
22967;SDS011;11650;48.106;-1.696;2023-05-07T11:34:52;7.50;;;4.60;;
22967;SDS011;11650;48.106;-1.696;2023-05-07T11:37:19;7.13;;;4.00;;
22967;SDS011;11650;48.106;-1.696;2023-05-07T11:39:45;5.97;;;4.30;;
22967;SDS011;11650;48.106;-1.696;2023-05-07T11:44:55;6.00;;;3.90;;
22967;SDS011;11650;48.106;-1.696;2023-05-07T11:47:21;7.23;;;4.17;;
22967;SDS011;11650;48.106;-1.696;2023-05-07T11:49:50;6.70;;;3.60;;
22967;SDS011;11650;48.106;-1.696;2023-05-07T11:52:18;5.90;;;3.40;;
22967;SDS011;11650;48.106;-1.696;2023-05-07T11:54:49;6.90;;;3.63;;
22967;SDS011;11650;48.106;-1.696;2023-05-07T11:57:15;5.03;;;3.20;;
22967;SDS011;11650;48.106;-1.696;2023-05-07T11:59:41;7.53;;;2.90;;
22967;SDS011;11650;48.106;-1.696;2023-05-07T12:02:09;9.80;;;3.97;;
22967;SDS011;11650;48.106;-1.696;2023-05-07T12:04:35;10.53;;;4.43;;
22967;SDS011;11650;48.106;-1.696;2023-05-07T12:07:01;11.30;;;4.30;;
22967;SDS011;11650;48.106;-1.696;2023-05-07T12:09:26;12.07;;;4.13;;
22967;SDS011;11650;48.106;-1.696;2023-05-07T12:11:52;10.23;;;4.73;;
22967;SDS011;11650;48.106;-1.696;2023-05-07T12:14:18;9.13;;;4.00;;
22967;SDS011;11650;48.106;-1.696;2023-05-07T12:16:44;8.60;;;4.20;;
22967;SDS011;11650;48.106;-1.696;2023-05-07T12:19:10;12.60;;;5.10;;
22967;SDS011;11650;48.106;-1.696;2023-05-07T12:21:39;11.00;;;4.53;;
22967;SDS011;11650;48.106;-1.696;2023-05-07T12:24:05;10.43;;;4.30;;
22967;SDS011;11650;48.106;-1.696;2023-05-07T12:26:33;13.20;;;4.50;;
22967;SDS011;11650;48.106;-1.696;2023-05-07T12:29:03;10.70;;;4.13;;
22967;SDS011;11650;48.106;-1.696;2023-05-07T12:31:28;9.63;;;3.77;;
22967;SDS011;11650;48.106;-1.696;2023-05-07T12:33:54;10.33;;;4.23;;
22967;SDS011;11650;48.106;-1.696;2023-05-07T12:36:19;9.73;;;3.93;;
22967;SDS011;11650;48.106;-1.696;2023-05-07T12:38:46;9.17;;;4.00;;
22967;SDS011;11650;48.106;-1.696;2023-05-07T12:41:15;11.63;;;4.13;;
22967;SDS011;11650;48.106;-1.696;2023-05-07T12:43:43;10.07;;;4.50;;
22967;SDS011;11650;48.106;-1.696;2023-05-07T12:46:10;11.50;;;4.30;;
22967;SDS011;11650;48.106;-1.696;2023-05-07T12:48:38;7.80;;;3.70;;
22967;SDS011;11650;48.106;-1.696;2023-05-07T12:51:10;11.93;;;3.97;;
22967;SDS011;11650;48.106;-1.696;2023-05-07T12:53:41;12.63;;;4.00;;
22967;SDS011;11650;48.106;-1.696;2023-05-07T12:56:07;7.93;;;3.60;;
22967;SDS011;11650;48.106;-1.696;2023-05-07T12:58:34;9.00;;;3.80;;
22967;SDS011;11650;48.106;-1.696;2023-05-07T13:01:04;11.20;;;3.97;;
22967;SDS011;11650;48.106;-1.696;2023-05-07T13:03:32;7.73;;;3.37;;
22967;SDS011;11650;48.106;-1.696;2023-05-07T13:06:00;8.20;;;3.37;;
22967;SDS011;11650;48.106;-1.696;2023-05-07T13:08:37;9.67;;;3.40;;
22967;SDS011;11650;48.106;-1.696;2023-05-07T13:11:08;8.43;;;3.40;;
22967;SDS011;11650;48.106;-1.696;2023-05-07T13:13:36;6.70;;;3.10;;
22967;SDS011;11650;48.106;-1.696;2023-05-07T13:16:04;7.53;;;3.23;;
22967;SDS011;11650;48.106;-1.696;2023-05-07T13:18:31;8.97;;;3.00;;
22967;SDS011;11650;48.106;-1.696;2023-05-07T13:20:58;6.77;;;2.77;;
22967;SDS011;11650;48.106;-1.696;2023-05-07T13:23:25;10.40;;;2.83;;
22967;SDS011;11650;48.106;-1.696;2023-05-07T13:25:51;7.33;;;3.03;;
22967;SDS011;11650;48.106;-1.696;2023-05-07T13:28:21;6.70;;;2.50;;
22967;SDS011;11650;48.106;-1.696;2023-05-07T13:30:47;6.17;;;2.63;;
22967;SDS011;11650;48.106;-1.696;2023-05-07T13:33:13;5.67;;;2.50;;
22967;SDS011;11650;48.106;-1.696;2023-05-07T13:35:40;6.23;;;2.40;;
22967;SDS011;11650;48.106;-1.696;2023-05-07T13:38:06;7.63;;;2.53;;
22967;SDS011;11650;48.106;-1.696;2023-05-07T13:40:31;4.73;;;2.30;;
22967;SDS011;11650;48.106;-1.696;2023-05-07T13:42:57;4.40;;;2.20;;
22967;SDS011;11650;48.106;-1.696;2023-05-07T13:45:24;4.37;;;2.10;;
22967;SDS011;11650;48.106;-1.696;2023-05-07T13:47:51;5.40;;;2.37;;
22967;SDS011;11650;48.106;-1.696;2023-05-07T13:50:16;5.60;;;2.00;;
22967;SDS011;11650;48.106;-1.696;2023-05-07T13:52:43;2.60;;;1.60;;
22967;SDS011;11650;48.106;-1.696;2023-05-07T13:55:18;3.50;;;1.80;;
22967;SDS011;11650;48.106;-1.696;2023-05-07T13:57:48;5.93;;;2.00;;
22967;SDS011;11650;48.106;-1.696;2023-05-07T14:00:21;4.00;;;1.70;;
22967;SDS011;11650;48.106;-1.696;2023-05-07T14:02:46;4.90;;;1.63;;
22967;SDS011;11650;48.106;-1.696;2023-05-07T14:05:12;6.33;;;2.20;;
22967;SDS011;11650;48.106;-1.696;2023-05-07T14:07:38;3.43;;;1.83;;
22967;SDS011;11650;48.106;-1.696;2023-05-07T14:10:04;4.77;;;1.73;;
22967;SDS011;11650;48.106;-1.696;2023-05-07T14:12:31;6.03;;;1.90;;
22967;SDS011;11650;48.106;-1.696;2023-05-07T14:14:57;4.33;;;2.00;;
22967;SDS011;11650;48.106;-1.696;2023-05-07T14:17:23;5.57;;;1.83;;
22967;SDS011;11650;48.106;-1.696;2023-05-07T14:19:51;4.70;;;2.03;;
22967;SDS011;11650;48.106;-1.696;2023-05-07T14:22:19;4.53;;;1.90;;
22967;SDS011;11650;48.106;-1.696;2023-05-07T14:24:45;4.97;;;2.20;;
22967;SDS011;11650;48.106;-1.696;2023-05-07T14:27:11;3.97;;;1.87;;
22967;SDS011;11650;48.106;-1.696;2023-05-07T14:29:36;4.73;;;1.73;;
22967;SDS011;11650;48.106;-1.696;2023-05-07T14:32:02;5.57;;;2.03;;
22967;SDS011;11650;48.106;-1.696;2023-05-07T14:34:28;3.30;;;1.80;;
22967;SDS011;11650;48.106;-1.696;2023-05-07T14:36:54;4.27;;;1.67;;
22967;SDS011;11650;48.106;-1.696;2023-05-07T14:39:20;4.23;;;1.80;;
22967;SDS011;11650;48.106;-1.696;2023-05-07T14:41:46;4.47;;;1.70;;
22967;SDS011;11650;48.106;-1.696;2023-05-07T14:44:12;10.73;;;2.30;;
22967;SDS011;11650;48.106;-1.696;2023-05-07T14:46:37;5.17;;;2.13;;
22967;SDS011;11650;48.106;-1.696;2023-05-07T14:49:03;3.83;;;1.80;;
22967;SDS011;11650;48.106;-1.696;2023-05-07T14:51:29;5.40;;;1.90;;
22967;SDS011;11650;48.106;-1.696;2023-05-07T14:53:55;4.53;;;1.80;;
22967;SDS011;11650;48.106;-1.696;2023-05-07T14:56:21;4.67;;;1.80;;